createdAt,value
2019-03-29T00:01:36.948Z,88.11
2019-03-29T00:03:44.661Z,88.08
2019-03-29T00:05:50.931Z,87.94
2019-03-29T00:07:57.300Z,88.05
2019-03-29T00:10:03.876Z,88.10
2019-03-29T00:12:10.419Z,88.17
2019-03-29T00:14:17.583Z,88.32
2019-03-29T00:16:24.174Z,88.22
2019-03-29T00:18:30.737Z,88.12
2019-03-29T00:20:37.518Z,87.91
2019-03-29T00:22:45.553Z,87.71
2019-03-29T00:24:52.183Z,87.72
2019-03-29T00:26:59.561Z,87.85
2019-03-29T00:29:06.144Z,87.92
2019-03-29T00:31:12.449Z,87.90
2019-03-29T00:33:19.966Z,87.73
2019-03-29T00:35:26.963Z,87.50
2019-03-29T00:37:33.540Z,87.38
2019-03-29T00:39:40.319Z,87.31
2019-03-29T00:41:47.472Z,87.13
2019-03-29T00:43:54.171Z,87.05
2019-03-29T00:46:01.422Z,86.99
2019-03-29T00:48:07.788Z,86.79
2019-03-29T00:50:14.458Z,86.62
2019-03-29T00:52:20.820Z,86.41
2019-03-29T00:54:28.836Z,86.10
2019-03-29T00:56:35.527Z,86.01
2019-03-29T00:58:42.788Z,85.90
2019-03-29T01:00:49.441Z,85.70
2019-03-29T01:02:56.847Z,85.45
2019-03-29T01:05:04.132Z,85.43
2019-03-29T01:09:25.555Z,85.23
2019-03-29T01:11:32.633Z,85.16
2019-03-29T01:13:39.227Z,85.33
2019-03-29T01:15:45.858Z,85.31
2019-03-29T01:17:53.047Z,85.14
2019-03-29T01:20:00.649Z,85.13
2019-03-29T01:22:07.302Z,85.03
2019-03-29T01:24:14.513Z,85.07
2019-03-29T01:26:21.171Z,85.13
2019-03-29T01:28:27.932Z,85.02
2019-03-29T01:30:34.597Z,84.84
2019-03-29T01:32:41.397Z,84.87
2019-03-29T01:34:48.040Z,84.72
2019-03-29T01:36:54.505Z,84.74
2019-03-29T01:39:00.981Z,84.77
2019-03-29T01:41:08.484Z,84.88
2019-03-29T01:43:15.220Z,84.99
2019-03-29T01:45:21.597Z,85.24
2019-03-29T01:47:28.047Z,85.52
2019-03-29T01:49:34.823Z,85.79
2019-03-29T01:51:41.300Z,86.10
2019-03-29T01:53:47.759Z,86.69
2019-03-29T01:55:54.416Z,86.90
2019-03-29T01:58:00.894Z,86.97
2019-03-29T02:00:09.221Z,87.05
2019-03-29T02:02:15.968Z,87.01
2019-03-29T02:04:22.332Z,87.18
2019-03-29T02:06:29.005Z,87.06
2019-03-29T02:10:46.957Z,86.55
2019-03-29T02:12:53.329Z,86.60
2019-03-29T02:14:59.878Z,86.33
2019-03-29T02:17:06.262Z,86.23
2019-03-29T02:19:13.028Z,86.11
2019-03-29T02:21:19.283Z,85.91
2019-03-29T02:23:26.056Z,86.07
2019-03-29T02:25:32.830Z,86.15
2019-03-29T02:27:39.962Z,86.01
2019-03-29T02:29:47.713Z,85.98
2019-03-29T02:31:53.982Z,86.07
2019-03-29T02:34:00.634Z,86.18
2019-03-29T02:36:07.209Z,86.38
2019-03-29T02:38:14.095Z,86.43
2019-03-29T02:40:22.634Z,86.48
2019-03-29T02:42:28.873Z,86.61
2019-03-29T02:44:36.437Z,86.81
2019-03-29T02:46:42.695Z,86.65
2019-03-29T02:48:49.239Z,86.57
2019-03-29T02:50:55.747Z,86.65
2019-03-29T02:53:02.190Z,86.66
2019-03-29T02:55:10.109Z,86.71
2019-03-29T02:57:16.473Z,86.73
2019-03-29T02:59:23.019Z,86.67
2019-03-29T03:01:29.803Z,86.78
2019-03-29T03:03:36.261Z,86.70
2019-03-29T03:05:42.849Z,86.68
2019-03-29T03:07:49.304Z,86.70
2019-03-29T03:09:56.076Z,86.68
2019-03-29T03:12:03.250Z,86.73
2019-03-29T03:14:09.804Z,86.68
2019-03-29T03:16:16.577Z,86.71
2019-03-29T03:18:23.047Z,86.75
2019-03-29T03:20:29.508Z,86.79
2019-03-29T03:22:36.189Z,86.71
2019-03-29T03:24:44.184Z,86.78
2019-03-29T03:26:51.047Z,86.85
2019-03-29T03:28:57.519Z,86.76
2019-03-29T03:31:05.217Z,86.80
2019-03-29T03:33:11.906Z,86.58
2019-03-29T03:35:19.690Z,86.58
2019-03-29T03:37:26.155Z,86.49
2019-03-29T03:39:32.827Z,86.48
2019-03-29T03:41:39.618Z,86.42
2019-03-29T03:43:46.354Z,86.35
2019-03-29T03:45:52.642Z,86.27
2019-03-29T03:47:59.613Z,86.17
2019-03-29T03:50:08.511Z,86.05
2019-03-29T03:52:15.079Z,85.87
2019-03-29T03:54:21.754Z,85.75
2019-03-29T03:56:29.833Z,85.69
2019-03-29T03:58:36.704Z,85.55
2019-03-29T04:00:53.662Z,85.51
2019-03-29T04:03:00.318Z,85.54
2019-03-29T04:05:08.690Z,85.35
2019-03-29T04:07:14.980Z,85.38
2019-03-29T04:09:21.447Z,85.29
2019-03-29T04:11:27.703Z,85.34
2019-03-29T04:13:34.270Z,85.16
2019-03-29T04:15:44.129Z,85.04
2019-03-29T04:17:50.701Z,84.81
2019-03-29T04:19:57.266Z,84.88
2019-03-29T04:22:03.736Z,84.56
2019-03-29T04:24:10.281Z,84.22
2019-03-29T04:26:17.051Z,84.16
2019-03-29T04:28:24.139Z,84.13
2019-03-29T04:30:30.828Z,84.06
2019-03-29T04:32:38.488Z,84.03
2019-03-29T04:34:46.079Z,84.00
2019-03-29T04:36:54.213Z,84.03
2019-03-29T04:39:00.685Z,84.01
2019-03-29T04:41:07.838Z,84.02
2019-03-29T04:43:14.508Z,83.99
2019-03-29T04:45:20.881Z,84.05
2019-03-29T04:47:28.683Z,83.93
2019-03-29T04:49:35.048Z,83.68
2019-03-29T04:51:41.826Z,83.89
2019-03-29T04:53:48.369Z,83.73
2019-03-29T04:55:55.056Z,83.62
2019-03-29T04:58:04.006Z,83.57
2019-03-29T05:00:12.248Z,83.52
2019-03-29T05:02:20.065Z,83.47
2019-03-29T05:04:27.285Z,83.32
2019-03-29T05:06:33.624Z,83.12
2019-03-29T05:08:40.405Z,82.77
2019-03-29T05:10:46.669Z,82.82
2019-03-29T05:12:53.219Z,82.58
2019-03-29T05:14:59.804Z,82.70
2019-03-29T05:17:06.775Z,82.61
2019-03-29T05:19:13.145Z,82.54
2019-03-29T05:21:19.562Z,82.54
2019-03-29T05:23:26.155Z,82.42
2019-03-29T05:25:32.835Z,82.12
2019-03-29T05:27:39.105Z,82.11
2019-03-29T05:29:45.777Z,82.17
2019-03-29T05:31:53.704Z,82.20
2019-03-29T05:34:00.545Z,82.07
2019-03-29T05:36:07.315Z,82.15
2019-03-29T05:38:14.289Z,82.22
2019-03-29T05:40:33.986Z,81.85
2019-03-29T05:42:29.382Z,81.64
2019-03-29T05:44:35.943Z,81.69
2019-03-29T05:46:43.918Z,81.70
2019-03-29T05:48:50.175Z,81.58
2019-03-29T05:50:56.775Z,81.61
2019-03-29T05:53:05.069Z,81.44
2019-03-29T05:55:12.464Z,81.24
2019-03-29T05:57:19.037Z,81.22
2019-03-29T05:59:25.589Z,80.95
2019-03-29T06:01:32.064Z,80.99
2019-03-29T06:03:38.405Z,81.13
2019-03-29T06:05:44.892Z,81.00
2019-03-29T06:07:51.964Z,81.09
2019-03-29T06:09:58.234Z,80.99
2019-03-29T06:12:05.066Z,80.76
2019-03-29T06:14:11.364Z,80.78
2019-03-29T06:16:18.544Z,80.59
2019-03-29T06:18:25.115Z,80.42
2019-03-29T06:20:32.084Z,80.26
2019-03-29T06:22:38.339Z,80.33
2019-03-29T06:24:44.908Z,80.40
2019-03-29T06:26:51.174Z,80.36
2019-03-29T06:28:58.155Z,79.95
2019-03-29T06:31:04.764Z,79.70
2019-03-29T06:33:13.326Z,79.62
2019-03-29T06:35:19.903Z,80.19
2019-03-29T06:37:27.308Z,80.04
2019-03-29T06:39:34.327Z,79.38
2019-03-29T06:41:40.936Z,79.53
2019-03-29T06:43:47.593Z,78.55
2019-03-29T06:45:54.266Z,78.10
2019-03-29T06:48:00.521Z,78.43
2019-03-29T06:50:08.879Z,77.98
2019-03-29T06:52:15.716Z,77.86
2019-03-29T06:54:22.384Z,79.43
2019-03-29T06:56:28.995Z,77.58
2019-03-29T06:58:35.306Z,76.73
2019-03-29T07:00:41.853Z,76.41
2019-03-29T07:02:48.130Z,76.24
2019-03-29T07:04:54.681Z,76.29
2019-03-29T07:07:01.075Z,75.89
2019-03-29T07:09:08.474Z,75.98
2019-03-29T07:11:17.654Z,76.17
2019-03-29T07:13:24.137Z,76.18
2019-03-29T07:15:30.504Z,75.58
2019-03-29T07:17:37.092Z,75.62
2019-03-29T07:19:43.315Z,75.68
2019-03-29T07:21:50.004Z,75.67
2019-03-29T07:23:56.283Z,75.31
2019-03-29T07:26:04.373Z,76.63
2019-03-29T07:28:10.863Z,73.91
2019-03-29T07:30:19.473Z,73.91
2019-03-29T07:32:26.225Z,74.27
2019-03-29T07:34:32.703Z,74.02
2019-03-29T07:36:39.051Z,73.44
2019-03-29T07:38:45.726Z,73.51
2019-03-29T07:40:52.086Z,72.99
2019-03-29T07:42:58.755Z,73.09
2019-03-29T07:45:10.267Z,72.98
2019-03-29T07:47:15.376Z,73.91
2019-03-29T07:49:22.138Z,72.16
2019-03-29T07:51:28.505Z,72.80
2019-03-29T07:53:35.388Z,72.78
2019-03-29T07:55:41.837Z,72.36
2019-03-29T07:57:48.312Z,72.24
2019-03-29T08:02:10.473Z,71.95
2019-03-29T08:04:16.822Z,71.60
2019-03-29T08:06:24.008Z,71.35
2019-03-29T08:08:34.256Z,70.15
2019-03-29T08:10:40.326Z,70.30
2019-03-29T08:12:46.576Z,71.10
2019-03-29T08:14:53.345Z,69.53
2019-03-29T08:16:59.823Z,70.21
2019-03-29T08:19:07.090Z,67.99
2019-03-29T08:21:13.668Z,68.13
2019-03-29T08:23:20.046Z,68.21
2019-03-29T08:25:27.417Z,68.31
2019-03-29T08:27:33.886Z,67.53
2019-03-29T08:29:42.936Z,67.51
2019-03-29T08:31:49.492Z,68.44
2019-03-29T08:33:57.892Z,66.87
2019-03-29T08:36:04.550Z,66.83
2019-03-29T08:38:12.810Z,67.07
2019-03-29T08:40:19.222Z,68.03
2019-03-29T08:42:26.095Z,68.23
2019-03-29T08:44:32.467Z,68.26
2019-03-29T08:46:38.922Z,69.00
2019-03-29T08:48:45.162Z,68.53
2019-03-29T08:50:51.463Z,68.50
2019-03-29T08:52:58.023Z,68.45
2019-03-29T08:55:05.776Z,68.24
2019-03-29T08:57:12.383Z,68.72
2019-03-29T08:59:18.932Z,69.80
2019-03-29T09:01:26.338Z,68.62
2019-03-29T09:03:33.204Z,68.47
2019-03-29T09:05:42.026Z,68.38
2019-03-29T09:07:50.036Z,67.29
2019-03-29T09:09:56.266Z,66.28
2019-03-29T09:12:13.837Z,66.13
2019-03-29T09:14:10.857Z,66.41
2019-03-29T09:16:17.712Z,66.27
2019-03-29T09:18:25.902Z,66.90
2019-03-29T09:20:34.434Z,68.04
2019-03-29T09:22:39.994Z,66.81
2019-03-29T09:24:48.077Z,67.62
2019-03-29T09:26:54.443Z,67.59
2019-03-29T09:29:01.337Z,67.87
2019-03-29T09:31:08.521Z,67.65
2019-03-29T09:33:15.497Z,67.90
2019-03-29T09:35:22.055Z,67.84
2019-03-29T09:37:28.726Z,67.92
2019-03-29T09:39:35.286Z,67.71
2019-03-29T09:41:42.165Z,67.78
2019-03-29T09:43:48.432Z,67.70
2019-03-29T09:45:55.002Z,67.88
2019-03-29T09:48:01.449Z,66.90
2019-03-29T09:50:10.584Z,66.86
2019-03-29T09:52:17.365Z,66.94
2019-03-29T09:54:23.728Z,66.31
2019-03-29T09:56:38.698Z,65.66
2019-03-29T09:58:39.748Z,65.86
2019-03-29T10:00:46.290Z,65.80
2019-03-29T10:02:54.203Z,65.24
2019-03-29T10:05:00.758Z,65.16
2019-03-29T10:07:07.137Z,64.75
2019-03-29T10:09:13.796Z,65.31
2019-03-29T10:11:22.051Z,65.28
2019-03-29T10:13:28.675Z,65.40
2019-03-29T10:15:35.135Z,65.23
2019-03-29T10:17:41.490Z,64.86
2019-03-29T10:19:49.864Z,63.52
2019-03-29T10:21:56.198Z,62.97
2019-03-29T10:24:02.833Z,62.80
2019-03-29T10:26:09.325Z,63.02
2019-03-29T10:28:15.888Z,63.93
2019-03-29T10:30:41.285Z,63.93
2019-03-29T10:32:47.527Z,64.05
2019-03-29T10:34:54.103Z,63.74
2019-03-29T10:37:00.482Z,63.82
2019-03-29T10:39:12.811Z,63.41
2019-03-29T10:41:22.571Z,63.45
2019-03-29T10:43:27.635Z,63.09
2019-03-29T10:45:39.486Z,63.76
2019-03-29T10:47:43.981Z,63.70
2019-03-29T10:49:50.435Z,63.35
2019-03-29T10:51:56.987Z,62.94
2019-03-29T10:54:03.455Z,63.00
2019-03-29T10:56:09.925Z,62.99
2019-03-29T10:58:16.488Z,62.86
2019-03-29T11:00:38.707Z,63.49
2019-03-29T11:02:45.084Z,62.70
2019-03-29T11:04:51.659Z,62.26
2019-03-29T11:06:58.503Z,60.99
2019-03-29T11:09:09.004Z,60.74
2019-03-29T11:11:15.452Z,61.47
2019-03-29T11:13:22.005Z,59.44
2019-03-29T11:15:28.467Z,59.54
2019-03-29T11:17:35.252Z,59.82
2019-03-29T11:19:41.713Z,59.73
2019-03-29T11:21:48.511Z,61.13
2019-03-29T11:23:55.875Z,61.59
2019-03-29T11:26:02.563Z,61.52
2019-03-29T11:28:09.323Z,61.28
2019-03-29T11:30:15.888Z,62.09
2019-03-29T11:32:22.449Z,62.89
2019-03-29T11:34:29.022Z,64.09
2019-03-29T11:36:35.496Z,63.47
2019-03-29T11:38:41.961Z,62.81
2019-03-29T11:40:48.646Z,63.14
2019-03-29T11:42:55.184Z,63.53
2019-03-29T11:45:01.969Z,63.64
2019-03-29T11:47:08.668Z,64.17
2019-03-29T11:49:15.408Z,63.97
2019-03-29T11:51:21.996Z,63.71
2019-03-29T11:53:28.551Z,64.68
2019-03-29T11:55:34.898Z,64.11
2019-03-29T11:57:42.739Z,65.00
2019-03-29T11:59:49.174Z,65.76
2019-03-29T12:01:55.439Z,65.46
2019-03-29T12:04:03.641Z,65.85
2019-03-29T12:06:10.103Z,66.42
2019-03-29T12:08:16.562Z,66.10
2019-03-29T12:10:23.040Z,65.89
2019-03-29T12:12:29.489Z,66.01
2019-03-29T12:14:35.858Z,66.72
2019-03-29T12:16:42.657Z,66.45
2019-03-29T12:18:49.103Z,66.62
2019-03-29T12:20:55.987Z,66.70
2019-03-29T12:23:03.200Z,67.34
2019-03-29T12:25:10.740Z,67.55
2019-03-29T12:27:17.119Z,67.46
2019-03-29T12:31:37.609Z,68.13
2019-03-29T12:33:44.188Z,67.88
2019-03-29T12:35:52.868Z,68.22
2019-03-29T12:37:59.339Z,68.39
2019-03-29T12:40:09.925Z,68.58
2019-03-29T12:42:16.910Z,68.47
2019-03-29T12:44:23.261Z,68.78
2019-03-29T12:46:32.472Z,69.01
2019-03-29T12:48:38.877Z,68.99
2019-03-29T12:50:45.316Z,69.09
2019-03-29T12:52:51.879Z,68.80
2019-03-29T12:54:58.150Z,68.64
2019-03-29T12:57:06.979Z,68.64
2019-03-29T12:59:13.430Z,68.70
2019-03-29T13:01:20.021Z,68.73
2019-03-29T13:03:28.209Z,68.51
2019-03-29T13:05:34.684Z,68.45
2019-03-29T13:07:41.239Z,68.19
2019-03-29T13:09:47.812Z,68.12
2019-03-29T13:11:54.673Z,67.98
2019-03-29T13:14:10.237Z,67.92
2019-03-29T13:16:09.269Z,67.36
2019-03-29T13:18:17.256Z,67.04
2019-03-29T13:20:23.610Z,66.64
2019-03-29T13:22:30.389Z,66.80
2019-03-29T13:24:36.952Z,66.38
2019-03-29T13:26:43.429Z,65.79
2019-03-29T13:28:49.996Z,66.18
2019-03-29T13:30:56.654Z,65.93
2019-03-29T13:33:03.332Z,65.35
2019-03-29T13:35:10.423Z,64.51
2019-03-29T13:37:16.751Z,64.93
2019-03-29T13:39:23.450Z,64.45
2019-03-29T13:41:29.708Z,64.42
2019-03-29T13:43:36.990Z,64.42
2019-03-29T13:45:43.570Z,64.07
2019-03-29T13:47:51.853Z,63.94
2019-03-29T13:49:58.741Z,64.32
2019-03-29T13:52:05.260Z,63.31
2019-03-29T13:54:11.769Z,63.19
2019-03-29T13:56:19.801Z,63.74
2019-03-29T13:58:26.129Z,63.68
2019-03-29T14:00:32.605Z,63.91
2019-03-29T14:02:38.855Z,63.68
2019-03-29T14:04:45.209Z,63.83
2019-03-29T14:06:51.894Z,63.70
2019-03-29T14:09:01.210Z,63.82
2019-03-29T14:11:09.440Z,63.56
2019-03-29T14:13:15.972Z,63.84
2019-03-29T14:15:24.084Z,64.42
2019-03-29T14:17:31.104Z,64.58
2019-03-29T14:19:37.651Z,64.68
2019-03-29T14:21:45.431Z,64.36
2019-03-29T14:23:51.791Z,64.55
2019-03-29T14:26:00.743Z,65.10
2019-03-29T14:28:10.482Z,65.15
2019-03-29T14:30:17.228Z,65.51
2019-03-29T14:32:25.043Z,65.69
2019-03-29T14:34:31.500Z,65.85
2019-03-29T14:36:38.895Z,65.83
2019-03-29T14:38:45.561Z,65.88
2019-03-29T14:40:51.909Z,66.23
2019-03-29T14:42:58.871Z,66.51
2019-03-29T14:45:08.354Z,66.88
2019-03-29T14:47:14.787Z,66.85
2019-03-29T14:49:21.750Z,67.12
2019-03-29T14:51:28.131Z,67.05
2019-03-29T14:53:34.620Z,66.85
2019-03-29T14:55:41.470Z,67.13
2019-03-29T14:57:48.041Z,67.35
2019-03-29T14:59:55.435Z,67.34
2019-03-29T15:02:01.690Z,67.09
2019-03-29T15:04:08.661Z,67.11
2019-03-29T15:06:15.021Z,67.13
2019-03-29T15:08:21.797Z,67.25
2019-03-29T15:10:31.849Z,67.34
2019-03-29T15:12:38.710Z,67.64
2019-03-29T15:14:45.387Z,67.87
2019-03-29T15:16:52.489Z,68.00
2019-03-29T15:18:58.744Z,68.09
2019-03-29T15:21:05.981Z,68.23
2019-03-29T15:23:21.380Z,68.43
2019-03-29T15:25:40.601Z,68.58
2019-03-29T15:27:53.270Z,68.42
2019-03-29T15:29:59.938Z,68.43
2019-03-29T15:32:07.017Z,68.47
2019-03-29T15:34:13.685Z,68.55
2019-03-29T15:36:20.263Z,68.52
2019-03-29T15:38:26.924Z,68.24
2019-03-29T15:40:33.805Z,68.43
2019-03-29T15:42:40.890Z,68.18
2019-03-29T15:44:47.795Z,68.07
2019-03-29T15:46:54.714Z,68.04
2019-03-29T15:49:01.304Z,68.27
2019-03-29T15:51:07.658Z,68.29
2019-03-29T15:53:14.507Z,68.53
2019-03-29T15:55:20.891Z,68.39
2019-03-29T15:57:28.357Z,68.25
2019-03-29T15:59:38.236Z,68.50
2019-03-29T16:01:54.520Z,68.52
2019-03-29T16:04:01.295Z,68.89
2019-03-29T16:06:07.864Z,68.57
2019-03-29T16:08:14.404Z,68.53
2019-03-29T16:10:21.107Z,68.94
2019-03-29T16:12:27.716Z,69.02
2019-03-29T16:14:34.246Z,68.36
2019-03-29T16:16:40.838Z,68.60
2019-03-29T16:18:47.264Z,69.44
2019-03-29T16:20:53.945Z,69.03
2019-03-29T16:23:00.305Z,69.39
2019-03-29T16:25:08.794Z,69.09
2019-03-29T16:27:15.374Z,69.14
2019-03-29T16:29:21.827Z,69.67
2019-03-29T16:31:28.295Z,69.30
2019-03-29T16:33:35.071Z,68.80
2019-03-29T16:35:41.349Z,69.32
2019-03-29T16:37:56.934Z,69.32
2019-03-29T16:39:56.611Z,69.82
2019-03-29T16:42:03.069Z,70.09
2019-03-29T16:44:09.391Z,70.76
2019-03-29T16:46:18.082Z,70.29
2019-03-29T16:48:24.425Z,69.75
2019-03-29T16:50:30.805Z,69.33
2019-03-29T16:52:37.174Z,69.70
2019-03-29T16:54:44.032Z,69.95
2019-03-29T16:56:50.790Z,70.03
2019-03-29T16:59:18.504Z,70.65
2019-03-29T17:01:25.275Z,70.35
2019-03-29T17:03:33.771Z,70.76
2019-03-29T17:05:43.173Z,70.57
2019-03-29T17:07:49.954Z,70.58
2019-03-29T17:09:57.854Z,71.05
2019-03-29T17:12:04.594Z,71.03
2019-03-29T17:14:11.385Z,71.05
2019-03-29T17:16:29.903Z,71.45
2019-03-29T17:18:29.583Z,71.11
2019-03-29T17:20:36.522Z,70.72
2019-03-29T17:22:44.029Z,70.94
2019-03-29T17:24:56.776Z,70.95
2019-03-29T17:26:59.914Z,71.08
2019-03-29T17:29:08.023Z,71.35
2019-03-29T17:31:16.775Z,71.33
2019-03-29T17:33:23.206Z,71.42
2019-03-29T17:35:30.045Z,71.37
2019-03-29T17:37:36.587Z,71.61
2019-03-29T17:39:43.904Z,71.75
2019-03-29T17:41:51.004Z,72.12
2019-03-29T17:43:57.483Z,72.11
2019-03-29T17:46:15.404Z,72.25
2019-03-29T17:48:12.978Z,71.95
2019-03-29T17:50:19.755Z,72.09
2019-03-29T17:52:26.739Z,72.21
2019-03-29T17:54:34.245Z,72.27
2019-03-29T17:56:41.001Z,72.54
2019-03-29T17:58:47.784Z,72.63
2019-03-29T18:00:54.769Z,72.66
2019-03-29T18:03:01.650Z,72.79
2019-03-29T18:05:09.464Z,72.81
2019-03-29T18:07:16.591Z,72.90
2019-03-29T18:09:23.403Z,72.86
2019-03-29T18:11:30.294Z,72.71
2019-03-29T18:13:39.226Z,72.59
2019-03-29T18:15:46.324Z,72.62
2019-03-29T18:17:53.501Z,72.57
2019-03-29T18:20:00.095Z,72.62
2019-03-29T18:22:08.723Z,72.71
2019-03-29T18:24:15.336Z,72.69
2019-03-29T18:26:23.006Z,72.64
2019-03-29T18:28:30.247Z,72.77
2019-03-29T18:30:41.616Z,72.90
2019-03-29T18:32:49.994Z,72.97
2019-03-29T18:34:59.065Z,73.06
2019-03-29T18:37:07.187Z,73.18
2019-03-29T18:39:14.092Z,73.22
2019-03-29T18:41:21.185Z,73.34
2019-03-29T18:43:28.225Z,73.48
2019-03-29T18:45:35.075Z,73.47
2019-03-29T18:47:44.024Z,73.62
2019-03-29T18:49:50.746Z,73.70
2019-03-29T18:51:57.664Z,73.78
2019-03-29T18:54:04.461Z,73.79
2019-03-29T18:56:11.353Z,73.86
2019-03-29T18:58:21.104Z,73.97
2019-03-29T19:00:37.507Z,74.01
2019-03-29T19:02:44.102Z,74.10
2019-03-29T19:04:51.346Z,74.09
2019-03-29T19:06:58.091Z,74.12
2019-03-29T19:09:07.055Z,74.13
2019-03-29T19:11:14.124Z,74.07
2019-03-29T19:13:22.975Z,73.87
2019-03-29T19:15:30.013Z,73.75
2019-03-29T19:17:36.689Z,73.71
2019-03-29T19:19:43.635Z,73.65
2019-03-29T19:21:50.512Z,73.82
2019-03-29T19:23:57.694Z,73.67
2019-03-29T19:26:05.037Z,73.68
2019-03-29T19:28:12.525Z,73.53
2019-03-29T19:30:20.674Z,73.62
2019-03-29T19:32:28.025Z,73.53
2019-03-29T19:34:34.946Z,73.52
2019-03-29T19:36:44.820Z,73.67
2019-03-29T19:38:51.705Z,73.83
2019-03-29T19:40:58.954Z,74.07
2019-03-29T19:43:06.399Z,74.20
2019-03-29T19:45:13.795Z,74.26
2019-03-29T19:47:20.735Z,74.33
2019-03-29T19:49:27.569Z,74.54
2019-03-29T19:51:34.338Z,74.69
2019-03-29T19:53:41.440Z,74.60
2019-03-29T19:55:49.816Z,74.46
2019-03-29T19:57:57.009Z,74.33
2019-03-29T20:00:07.935Z,74.42
2019-03-29T20:02:21.959Z,74.25
2019-03-29T20:04:30.102Z,73.95
2019-03-29T20:06:37.605Z,73.92
2019-03-29T20:08:44.122Z,73.96
2019-03-29T20:10:51.019Z,73.89
2019-03-29T20:12:59.275Z,73.75
2019-03-29T20:15:12.274Z,73.88
2019-03-29T20:17:27.381Z,73.89
2019-03-29T20:19:28.522Z,73.89
2019-03-29T20:21:35.835Z,73.84
2019-03-29T20:23:43.436Z,73.89
2019-03-29T20:25:51.642Z,73.89
2019-03-29T20:28:00.274Z,74.01
2019-03-29T20:30:08.785Z,74.03
2019-03-29T20:32:16.716Z,74.21
2019-03-29T20:34:23.604Z,74.23
2019-03-29T20:36:30.991Z,74.43
2019-03-29T20:38:37.601Z,74.49
2019-03-29T20:40:46.458Z,74.47
2019-03-29T20:42:53.364Z,74.52
2019-03-29T20:45:00.836Z,74.52
2019-03-29T20:47:08.376Z,74.74
2019-03-29T20:49:15.126Z,74.69
2019-03-29T20:51:22.184Z,74.71
2019-03-29T20:53:31.617Z,74.71
2019-03-29T20:55:39.077Z,74.73
2019-03-29T20:57:46.011Z,74.74
2019-03-29T20:59:52.955Z,74.78
2019-03-29T21:02:00.005Z,74.72
2019-03-29T21:04:08.404Z,74.69
2019-03-29T21:06:15.475Z,74.85
2019-03-29T21:08:22.524Z,74.72
2019-03-29T21:10:29.391Z,74.71
2019-03-29T21:12:36.054Z,74.75
2019-03-29T21:14:43.111Z,74.57
2019-03-29T21:16:49.764Z,74.46
2019-03-29T21:18:57.284Z,74.39
2019-03-29T21:21:05.162Z,74.41
2019-03-29T21:23:12.005Z,74.35
2019-03-29T21:25:19.435Z,74.30
2019-03-29T21:27:26.264Z,74.44
2019-03-29T21:29:33.225Z,74.41
2019-03-29T21:31:40.422Z,74.38
2019-03-29T21:33:48.521Z,74.32
2019-03-29T21:35:56.546Z,74.31
2019-03-29T21:38:03.215Z,74.25
2019-03-29T21:40:11.524Z,74.34
2019-03-29T21:42:18.561Z,74.49
2019-03-29T21:44:25.745Z,74.57
2019-03-29T21:46:34.484Z,74.66
2019-03-29T21:48:41.675Z,74.69
2019-03-29T21:50:50.352Z,74.68
2019-03-29T21:52:57.359Z,74.77
2019-03-29T21:55:05.050Z,74.84
2019-03-29T21:57:13.162Z,74.83
2019-03-29T21:59:20.740Z,74.95
2019-03-29T22:01:27.301Z,74.88
2019-03-29T22:03:33.563Z,74.91
2019-03-29T22:05:41.791Z,74.87
2019-03-29T22:07:49.782Z,74.79
2019-03-29T22:09:56.151Z,74.90
2019-03-29T22:12:03.214Z,74.93
2019-03-29T22:14:09.780Z,74.94
2019-03-29T22:16:16.217Z,75.10
2019-03-29T22:18:36.846Z,75.04
2019-03-29T22:20:31.223Z,75.19
2019-03-29T22:22:38.328Z,75.23
2019-03-29T22:24:45.182Z,75.20
2019-03-29T22:26:53.592Z,75.15
2019-03-29T22:29:00.365Z,75.21
2019-03-29T22:31:06.719Z,75.06
2019-03-29T22:33:13.292Z,74.93
2019-03-29T22:35:19.652Z,74.75
2019-03-29T22:37:26.351Z,74.63
2019-03-29T22:39:33.003Z,74.63
2019-03-29T22:41:39.563Z,74.13
2019-03-29T22:43:46.131Z,73.77
2019-03-29T22:45:52.592Z,73.71
2019-03-29T22:47:59.154Z,73.62
2019-03-29T22:50:08.092Z,73.53
2019-03-29T22:52:14.432Z,73.44
2019-03-29T22:54:20.812Z,73.16
2019-03-29T22:56:27.263Z,72.68
2019-03-29T22:58:33.733Z,72.40
2019-03-29T23:00:47.769Z,72.21
2019-03-29T23:02:54.534Z,71.99
2019-03-29T23:05:03.073Z,71.59
2019-03-29T23:07:09.733Z,71.51
2019-03-29T23:09:18.017Z,71.38
2019-03-29T23:11:24.821Z,71.17
2019-03-29T23:13:31.285Z,71.25
2019-03-29T23:15:37.854Z,71.54
2019-03-29T23:17:44.313Z,71.36
2019-03-29T23:19:50.885Z,71.45
2019-03-29T23:21:57.654Z,71.61
2019-03-29T23:24:04.114Z,71.77
2019-03-29T23:26:10.804Z,71.50
2019-03-29T23:28:17.343Z,71.41
2019-03-29T23:30:24.186Z,71.16
2019-03-29T23:32:30.594Z,70.91
2019-03-29T23:34:37.176Z,71.22
2019-03-29T23:36:43.621Z,71.17
2019-03-29T23:38:50.405Z,71.27
2019-03-29T23:40:56.774Z,71.53
2019-03-29T23:43:03.225Z,71.73
2019-03-29T23:45:09.894Z,71.98
2019-03-29T23:47:17.794Z,72.17
2019-03-29T23:49:24.054Z,72.40
2019-03-29T23:51:30.623Z,72.51
2019-03-29T23:53:38.323Z,72.67
2019-03-29T23:55:44.784Z,72.54
2019-03-29T23:57:51.565Z,72.76
2019-03-29T23:59:57.813Z,72.41
